sensor_id;sensor_type;location;lat;lon;timestamp;P1;durP1;ratioP1;P2;durP2;ratioP2
12308;SDS011;6217;48.150;17.142;2024-03-08T00:00:18;27.50;;;18.63;;
12308;SDS011;6217;48.150;17.142;2024-03-08T00:04:24;32.17;;;17.80;;
12308;SDS011;6217;48.150;17.142;2024-03-08T00:08:30;27.27;;;18.85;;
12308;SDS011;6217;48.150;17.142;2024-03-08T00:12:43;30.55;;;18.70;;
12308;SDS011;6217;48.150;17.142;2024-03-08T00:16:50;31.50;;;19.35;;
12308;SDS011;6217;48.150;17.142;2024-03-08T00:20:58;33.10;;;19.70;;
12308;SDS011;6217;48.150;17.142;2024-03-08T00:25:04;26.60;;;18.38;;
12308;SDS011;6217;48.150;17.142;2024-03-08T00:29:13;24.83;;;15.90;;
12308;SDS011;6217;48.150;17.142;2024-03-08T00:33:19;27.52;;;17.35;;
12308;SDS011;6217;48.150;17.142;2024-03-08T00:37:26;25.90;;;16.77;;
12308;SDS011;6217;48.150;17.142;2024-03-08T00:41:32;25.40;;;16.48;;
12308;SDS011;6217;48.150;17.142;2024-03-08T00:45:38;24.88;;;18.20;;
12308;SDS011;6217;48.150;17.142;2024-03-08T00:49:47;25.13;;;16.48;;
12308;SDS011;6217;48.150;17.142;2024-03-08T00:53:53;28.77;;;18.42;;
12308;SDS011;6217;48.150;17.142;2024-03-08T00:57:59;26.23;;;17.35;;
12308;SDS011;6217;48.150;17.142;2024-03-08T01:02:04;24.70;;;17.05;;
12308;SDS011;6217;48.150;17.142;2024-03-08T01:06:11;25.20;;;17.10;;
12308;SDS011;6217;48.150;17.142;2024-03-08T01:10:17;27.63;;;17.33;;
12308;SDS011;6217;48.150;17.142;2024-03-08T01:14:23;27.45;;;17.45;;
12308;SDS011;6217;48.150;17.142;2024-03-08T01:18:36;23.08;;;17.30;;
12308;SDS011;6217;48.150;17.142;2024-03-08T01:22:42;24.92;;;16.23;;
12308;SDS011;6217;48.150;17.142;2024-03-08T01:26:48;22.90;;;14.77;;
12308;SDS011;6217;48.150;17.142;2024-03-08T01:30:54;27.02;;;16.65;;
12308;SDS011;6217;48.150;17.142;2024-03-08T01:35:02;30.17;;;15.63;;
12308;SDS011;6217;48.150;17.142;2024-03-08T01:39:09;25.65;;;14.52;;
12308;SDS011;6217;48.150;17.142;2024-03-08T01:43:47;23.73;;;15.77;;
12308;SDS011;6217;48.150;17.142;2024-03-08T01:47:46;25.25;;;15.07;;
12308;SDS011;6217;48.150;17.142;2024-03-08T01:51:53;22.08;;;13.35;;
12308;SDS011;6217;48.150;17.142;2024-03-08T01:56:01;18.88;;;13.57;;
12308;SDS011;6217;48.150;17.142;2024-03-08T02:00:08;21.90;;;14.02;;
12308;SDS011;6217;48.150;17.142;2024-03-08T02:04:15;21.77;;;13.90;;
12308;SDS011;6217;48.150;17.142;2024-03-08T02:08:21;17.05;;;12.38;;
12308;SDS011;6217;48.150;17.142;2024-03-08T02:12:27;19.75;;;13.50;;
12308;SDS011;6217;48.150;17.142;2024-03-08T02:16:33;19.38;;;13.75;;
12308;SDS011;6217;48.150;17.142;2024-03-08T02:20:41;22.45;;;14.32;;
12308;SDS011;6217;48.150;17.142;2024-03-08T02:24:46;20.17;;;13.85;;
12308;SDS011;6217;48.150;17.142;2024-03-08T02:28:53;17.15;;;12.75;;
12308;SDS011;6217;48.150;17.142;2024-03-08T02:32:59;20.05;;;13.60;;
12308;SDS011;6217;48.150;17.142;2024-03-08T02:37:05;19.40;;;13.20;;
12308;SDS011;6217;48.150;17.142;2024-03-08T02:41:11;21.40;;;15.18;;
12308;SDS011;6217;48.150;17.142;2024-03-08T02:45:17;20.42;;;15.13;;
12308;SDS011;6217;48.150;17.142;2024-03-08T02:49:23;24.15;;;15.80;;
12308;SDS011;6217;48.150;17.142;2024-03-08T02:53:29;23.95;;;16.50;;
12308;SDS011;6217;48.150;17.142;2024-03-08T02:57:35;20.92;;;13.57;;
12308;SDS011;6217;48.150;17.142;2024-03-08T03:01:42;27.00;;;16.63;;
12308;SDS011;6217;48.150;17.142;2024-03-08T03:05:48;24.55;;;14.60;;
12308;SDS011;6217;48.150;17.142;2024-03-08T03:09:55;22.60;;;15.80;;
12308;SDS011;6217;48.150;17.142;2024-03-08T03:14:01;24.83;;;17.02;;
12308;SDS011;6217;48.150;17.142;2024-03-08T03:18:07;28.02;;;15.82;;
12308;SDS011;6217;48.150;17.142;2024-03-08T03:22:13;27.00;;;16.30;;
12308;SDS011;6217;48.150;17.142;2024-03-08T03:26:20;30.73;;;18.35;;
12308;SDS011;6217;48.150;17.142;2024-03-08T03:30:27;29.13;;;19.20;;
12308;SDS011;6217;48.150;17.142;2024-03-08T03:34:38;25.03;;;17.20;;
12308;SDS011;6217;48.150;17.142;2024-03-08T03:38:45;28.67;;;18.55;;
12308;SDS011;6217;48.150;17.142;2024-03-08T03:42:50;32.78;;;20.92;;
12308;SDS011;6217;48.150;17.142;2024-03-08T03:46:57;34.42;;;19.13;;
12308;SDS011;6217;48.150;17.142;2024-03-08T03:51:03;27.58;;;17.15;;
12308;SDS011;6217;48.150;17.142;2024-03-08T03:55:09;28.92;;;18.63;;
12308;SDS011;6217;48.150;17.142;2024-03-08T03:59:17;26.23;;;16.55;;
12308;SDS011;6217;48.150;17.142;2024-03-08T04:03:23;27.02;;;17.77;;
12308;SDS011;6217;48.150;17.142;2024-03-08T04:07:29;28.15;;;17.20;;
12308;SDS011;6217;48.150;17.142;2024-03-08T04:11:35;31.48;;;19.13;;
12308;SDS011;6217;48.150;17.142;2024-03-08T04:15:41;31.02;;;18.75;;
12308;SDS011;6217;48.150;17.142;2024-03-08T04:19:49;28.88;;;16.90;;
12308;SDS011;6217;48.150;17.142;2024-03-08T04:23:55;25.42;;;16.80;;
12308;SDS011;6217;48.150;17.142;2024-03-08T04:28:01;24.52;;;16.38;;
12308;SDS011;6217;48.150;17.142;2024-03-08T04:32:07;29.65;;;18.67;;
12308;SDS011;6217;48.150;17.142;2024-03-08T04:36:13;22.55;;;16.73;;
12308;SDS011;6217;48.150;17.142;2024-03-08T04:40:19;27.10;;;16.52;;
12308;SDS011;6217;48.150;17.142;2024-03-08T04:44:25;24.65;;;15.68;;
12308;SDS011;6217;48.150;17.142;2024-03-08T04:48:31;23.27;;;16.00;;
12308;SDS011;6217;48.150;17.142;2024-03-08T04:52:37;23.58;;;15.27;;
12308;SDS011;6217;48.150;17.142;2024-03-08T04:56:43;27.08;;;16.90;;
12308;SDS011;6217;48.150;17.142;2024-03-08T05:00:49;27.92;;;18.88;;
12308;SDS011;6217;48.150;17.142;2024-03-08T05:04:55;31.65;;;19.55;;
12308;SDS011;6217;48.150;17.142;2024-03-08T05:09:02;25.67;;;16.73;;
12308;SDS011;6217;48.150;17.142;2024-03-08T05:13:24;27.08;;;17.40;;
12308;SDS011;6217;48.150;17.142;2024-03-08T05:17:30;27.75;;;18.00;;
12308;SDS011;6217;48.150;17.142;2024-03-08T05:21:36;25.17;;;16.98;;
12308;SDS011;6217;48.150;17.142;2024-03-08T05:25:42;25.10;;;16.67;;
12308;SDS011;6217;48.150;17.142;2024-03-08T05:29:49;27.20;;;16.15;;
12308;SDS011;6217;48.150;17.142;2024-03-08T05:33:55;28.55;;;17.75;;
12308;SDS011;6217;48.150;17.142;2024-03-08T05:38:01;32.88;;;20.40;;
12308;SDS011;6217;48.150;17.142;2024-03-08T05:42:07;31.50;;;18.42;;
12308;SDS011;6217;48.150;17.142;2024-03-08T05:46:16;30.38;;;19.98;;
12308;SDS011;6217;48.150;17.142;2024-03-08T05:50:23;38.17;;;23.20;;
12308;SDS011;6217;48.150;17.142;2024-03-08T05:54:29;35.95;;;21.73;;
12308;SDS011;6217;48.150;17.142;2024-03-08T05:58:35;37.88;;;22.98;;
12308;SDS011;6217;48.150;17.142;2024-03-08T06:02:41;30.40;;;18.73;;
12308;SDS011;6217;48.150;17.142;2024-03-08T06:06:47;32.70;;;19.48;;
12308;SDS011;6217;48.150;17.142;2024-03-08T06:10:53;35.38;;;20.13;;
12308;SDS011;6217;48.150;17.142;2024-03-08T06:14:59;34.17;;;19.23;;
12308;SDS011;6217;48.150;17.142;2024-03-08T06:19:05;34.90;;;19.88;;
12308;SDS011;6217;48.150;17.142;2024-03-08T06:23:11;32.78;;;19.10;;
12308;SDS011;6217;48.150;17.142;2024-03-08T06:27:17;43.20;;;24.15;;
12308;SDS011;6217;48.150;17.142;2024-03-08T06:31:24;46.47;;;23.02;;
12308;SDS011;6217;48.150;17.142;2024-03-08T06:35:30;39.38;;;22.23;;
12308;SDS011;6217;48.150;17.142;2024-03-08T06:39:37;36.92;;;20.70;;
12308;SDS011;6217;48.150;17.142;2024-03-08T06:43:43;34.95;;;21.05;;
12308;SDS011;6217;48.150;17.142;2024-03-08T06:47:51;40.42;;;21.98;;
12308;SDS011;6217;48.150;17.142;2024-03-08T06:51:57;41.25;;;25.38;;
12308;SDS011;6217;48.150;17.142;2024-03-08T06:56:03;37.03;;;24.65;;
12308;SDS011;6217;48.150;17.142;2024-03-08T07:00:09;37.40;;;24.23;;
12308;SDS011;6217;48.150;17.142;2024-03-08T07:04:19;35.08;;;24.00;;
12308;SDS011;6217;48.150;17.142;2024-03-08T07:08:26;37.38;;;22.55;;
12308;SDS011;6217;48.150;17.142;2024-03-08T07:12:32;39.92;;;24.67;;
12308;SDS011;6217;48.150;17.142;2024-03-08T07:16:38;41.53;;;24.55;;
12308;SDS011;6217;48.150;17.142;2024-03-08T07:20:44;40.55;;;24.17;;
12308;SDS011;6217;48.150;17.142;2024-03-08T07:24:50;41.70;;;25.83;;
12308;SDS011;6217;48.150;17.142;2024-03-08T07:29:15;44.55;;;26.95;;
12308;SDS011;6217;48.150;17.142;2024-03-08T07:33:21;39.50;;;23.23;;
12308;SDS011;6217;48.150;17.142;2024-03-08T07:37:28;42.83;;;24.17;;
12308;SDS011;6217;48.150;17.142;2024-03-08T07:41:34;47.47;;;25.48;;
12308;SDS011;6217;48.150;17.142;2024-03-08T07:45:41;47.00;;;25.92;;
12308;SDS011;6217;48.150;17.142;2024-03-08T07:49:47;47.25;;;24.00;;
12308;SDS011;6217;48.150;17.142;2024-03-08T07:53:53;50.05;;;26.75;;
12308;SDS011;6217;48.150;17.142;2024-03-08T07:58:00;42.42;;;22.40;;
12308;SDS011;6217;48.150;17.142;2024-03-08T08:02:10;41.80;;;23.85;;
12308;SDS011;6217;48.150;17.142;2024-03-08T08:06:16;39.25;;;25.00;;
12308;SDS011;6217;48.150;17.142;2024-03-08T08:10:22;39.65;;;25.90;;
12308;SDS011;6217;48.150;17.142;2024-03-08T08:14:30;41.75;;;24.48;;
12308;SDS011;6217;48.150;17.142;2024-03-08T08:18:36;42.08;;;25.05;;
12308;SDS011;6217;48.150;17.142;2024-03-08T08:22:42;37.22;;;23.27;;
12308;SDS011;6217;48.150;17.142;2024-03-08T08:26:48;36.65;;;25.88;;
12308;SDS011;6217;48.150;17.142;2024-03-08T08:30:54;43.50;;;25.33;;
12308;SDS011;6217;48.150;17.142;2024-03-08T08:35:00;39.60;;;25.35;;
12308;SDS011;6217;48.150;17.142;2024-03-08T08:39:07;42.78;;;24.58;;
12308;SDS011;6217;48.150;17.142;2024-03-08T08:43:18;36.50;;;24.25;;
12308;SDS011;6217;48.150;17.142;2024-03-08T08:47:26;33.35;;;22.15;;
12308;SDS011;6217;48.150;17.142;2024-03-08T08:51:32;45.10;;;24.70;;
12308;SDS011;6217;48.150;17.142;2024-03-08T08:55:41;37.95;;;23.38;;
12308;SDS011;6217;48.150;17.142;2024-03-08T08:59:46;38.50;;;23.08;;
12308;SDS011;6217;48.150;17.142;2024-03-08T09:03:52;36.65;;;24.45;;
12308;SDS011;6217;48.150;17.142;2024-03-08T09:07:59;35.67;;;23.80;;
12308;SDS011;6217;48.150;17.142;2024-03-08T09:12:06;36.30;;;23.48;;
12308;SDS011;6217;48.150;17.142;2024-03-08T09:16:12;38.33;;;22.27;;
12308;SDS011;6217;48.150;17.142;2024-03-08T09:20:18;34.05;;;21.38;;
12308;SDS011;6217;48.150;17.142;2024-03-08T09:24:24;32.20;;;21.00;;
12308;SDS011;6217;48.150;17.142;2024-03-08T09:28:30;34.00;;;21.20;;
12308;SDS011;6217;48.150;17.142;2024-03-08T09:32:35;31.70;;;20.88;;
12308;SDS011;6217;48.150;17.142;2024-03-08T09:36:42;32.70;;;19.65;;
12308;SDS011;6217;48.150;17.142;2024-03-08T09:40:48;24.95;;;15.10;;
12308;SDS011;6217;48.150;17.142;2024-03-08T09:44:54;24.95;;;16.77;;
12308;SDS011;6217;48.150;17.142;2024-03-08T09:49:00;20.50;;;13.55;;
12308;SDS011;6217;48.150;17.142;2024-03-08T09:53:06;22.27;;;12.18;;
12308;SDS011;6217;48.150;17.142;2024-03-08T09:57:15;19.30;;;13.85;;
12308;SDS011;6217;48.150;17.142;2024-03-08T10:01:21;21.67;;;13.57;;
12308;SDS011;6217;48.150;17.142;2024-03-08T10:05:27;22.90;;;12.90;;
12308;SDS011;6217;48.150;17.142;2024-03-08T10:09:33;17.30;;;12.13;;
12308;SDS011;6217;48.150;17.142;2024-03-08T10:13:39;16.77;;;11.40;;
12308;SDS011;6217;48.150;17.142;2024-03-08T10:17:45;17.73;;;12.45;;
12308;SDS011;6217;48.150;17.142;2024-03-08T10:21:51;20.27;;;13.63;;
12308;SDS011;6217;48.150;17.142;2024-03-08T10:26:09;15.35;;;12.02;;
12308;SDS011;6217;48.150;17.142;2024-03-08T10:30:19;18.07;;;13.50;;
12308;SDS011;6217;48.150;17.142;2024-03-08T10:34:26;17.58;;;13.30;;
12308;SDS011;6217;48.150;17.142;2024-03-08T10:38:38;17.52;;;12.05;;
12308;SDS011;6217;48.150;17.142;2024-03-08T10:47:01;18.60;;;11.23;;
12308;SDS011;6217;48.150;17.142;2024-03-08T10:51:46;18.25;;;10.77;;
12308;SDS011;6217;48.150;17.142;2024-03-08T10:55:53;14.75;;;10.23;;
12308;SDS011;6217;48.150;17.142;2024-03-08T11:00:02;18.98;;;10.95;;
12308;SDS011;6217;48.150;17.142;2024-03-08T11:04:13;13.35;;;9.93;;
12308;SDS011;6217;48.150;17.142;2024-03-08T11:08:19;13.13;;;9.32;;
12308;SDS011;6217;48.150;17.142;2024-03-08T11:12:26;13.35;;;9.90;;
12308;SDS011;6217;48.150;17.142;2024-03-08T11:20:45;11.95;;;9.13;;
12308;SDS011;6217;48.150;17.142;2024-03-08T11:24:58;11.30;;;8.65;;
12308;SDS011;6217;48.150;17.142;2024-03-08T11:33:42;12.23;;;9.48;;
12308;SDS011;6217;48.150;17.142;2024-03-08T11:37:52;12.15;;;9.10;;
12308;SDS011;6217;48.150;17.142;2024-03-08T11:41:59;13.43;;;11.88;;
12308;SDS011;6217;48.150;17.142;2024-03-08T11:46:08;14.00;;;9.65;;
12308;SDS011;6217;48.150;17.142;2024-03-08T11:50:15;14.18;;;10.63;;
12308;SDS011;6217;48.150;17.142;2024-03-08T11:54:23;14.85;;;9.35;;
12308;SDS011;6217;48.150;17.142;2024-03-08T11:58:29;13.98;;;10.85;;
12308;SDS011;6217;48.150;17.142;2024-03-08T12:02:36;11.10;;;8.70;;
12308;SDS011;6217;48.150;17.142;2024-03-08T12:06:43;12.38;;;8.63;;
12308;SDS011;6217;48.150;17.142;2024-03-08T12:10:52;10.27;;;7.63;;
12308;SDS011;6217;48.150;17.142;2024-03-08T12:15:04;11.93;;;9.20;;
12308;SDS011;6217;48.150;17.142;2024-03-08T12:19:11;13.40;;;8.02;;
12308;SDS011;6217;48.150;17.142;2024-03-08T12:23:17;7.65;;;6.10;;
12308;SDS011;6217;48.150;17.142;2024-03-08T12:27:23;11.57;;;6.63;;
12308;SDS011;6217;48.150;17.142;2024-03-08T12:31:33;6.70;;;5.30;;
12308;SDS011;6217;48.150;17.142;2024-03-08T12:35:41;11.00;;;8.20;;
12308;SDS011;6217;48.150;17.142;2024-03-08T12:39:59;11.95;;;7.53;;
12308;SDS011;6217;48.150;17.142;2024-03-08T12:44:05;9.25;;;7.75;;
12308;SDS011;6217;48.150;17.142;2024-03-08T12:48:13;11.20;;;6.78;;
12308;SDS011;6217;48.150;17.142;2024-03-08T12:52:20;11.52;;;7.45;;
12308;SDS011;6217;48.150;17.142;2024-03-08T12:56:30;12.05;;;9.38;;
12308;SDS011;6217;48.150;17.142;2024-03-08T13:00:42;9.57;;;8.00;;
12308;SDS011;6217;48.150;17.142;2024-03-08T13:04:49;9.98;;;7.78;;
12308;SDS011;6217;48.150;17.142;2024-03-08T13:09:02;8.45;;;7.57;;
12308;SDS011;6217;48.150;17.142;2024-03-08T13:13:11;9.43;;;6.35;;
12308;SDS011;6217;48.150;17.142;2024-03-08T13:17:18;10.65;;;8.52;;
12308;SDS011;6217;48.150;17.142;2024-03-08T13:21:23;10.90;;;7.28;;
12308;SDS011;6217;48.150;17.142;2024-03-08T13:25:29;6.75;;;5.70;;
12308;SDS011;6217;48.150;17.142;2024-03-08T13:29:38;8.82;;;6.65;;
12308;SDS011;6217;48.150;17.142;2024-03-08T13:33:44;8.63;;;6.32;;
12308;SDS011;6217;48.150;17.142;2024-03-08T13:37:52;10.23;;;7.68;;
12308;SDS011;6217;48.150;17.142;2024-03-08T13:41:58;10.60;;;7.63;;
12308;SDS011;6217;48.150;17.142;2024-03-08T13:46:04;11.90;;;9.05;;
12308;SDS011;6217;48.150;17.142;2024-03-08T13:50:11;9.40;;;7.25;;
12308;SDS011;6217;48.150;17.142;2024-03-08T13:54:17;9.30;;;7.03;;
12308;SDS011;6217;48.150;17.142;2024-03-08T13:58:23;10.73;;;8.57;;
12308;SDS011;6217;48.150;17.142;2024-03-08T14:02:29;12.15;;;9.40;;
12308;SDS011;6217;48.150;17.142;2024-03-08T14:06:36;9.25;;;6.63;;
12308;SDS011;6217;48.150;17.142;2024-03-08T14:10:42;9.23;;;7.90;;
12308;SDS011;6217;48.150;17.142;2024-03-08T14:14:52;11.05;;;7.93;;
12308;SDS011;6217;48.150;17.142;2024-03-08T14:18:58;10.38;;;7.50;;
12308;SDS011;6217;48.150;17.142;2024-03-08T14:23:08;9.68;;;7.88;;
12308;SDS011;6217;48.150;17.142;2024-03-08T14:27:15;9.70;;;6.85;;
12308;SDS011;6217;48.150;17.142;2024-03-08T14:31:23;11.95;;;6.35;;
12308;SDS011;6217;48.150;17.142;2024-03-08T14:35:31;6.72;;;5.85;;
12308;SDS011;6217;48.150;17.142;2024-03-08T14:39:37;11.38;;;6.30;;
12308;SDS011;6217;48.150;17.142;2024-03-08T14:43:43;9.00;;;6.80;;
12308;SDS011;6217;48.150;17.142;2024-03-08T14:47:50;12.30;;;7.90;;
12308;SDS011;6217;48.150;17.142;2024-03-08T14:51:56;9.52;;;7.80;;
12308;SDS011;6217;48.150;17.142;2024-03-08T14:56:05;9.02;;;6.95;;
12308;SDS011;6217;48.150;17.142;2024-03-08T15:00:14;12.30;;;7.85;;
12308;SDS011;6217;48.150;17.142;2024-03-08T15:04:31;8.60;;;7.65;;
12308;SDS011;6217;48.150;17.142;2024-03-08T15:08:40;8.27;;;6.60;;
12308;SDS011;6217;48.150;17.142;2024-03-08T15:12:47;11.15;;;7.72;;
12308;SDS011;6217;48.150;17.142;2024-03-08T15:16:53;8.77;;;6.32;;
12308;SDS011;6217;48.150;17.142;2024-03-08T15:21:00;10.30;;;7.00;;
12308;SDS011;6217;48.150;17.142;2024-03-08T15:25:06;11.82;;;6.95;;
12308;SDS011;6217;48.150;17.142;2024-03-08T15:29:12;9.32;;;6.93;;
12308;SDS011;6217;48.150;17.142;2024-03-08T15:33:18;9.45;;;7.20;;
12308;SDS011;6217;48.150;17.142;2024-03-08T15:37:29;8.67;;;6.30;;
12308;SDS011;6217;48.150;17.142;2024-03-08T15:41:35;9.60;;;6.85;;
12308;SDS011;6217;48.150;17.142;2024-03-08T15:45:41;9.50;;;7.15;;
12308;SDS011;6217;48.150;17.142;2024-03-08T15:49:47;9.95;;;7.43;;
12308;SDS011;6217;48.150;17.142;2024-03-08T15:53:53;10.60;;;7.47;;
12308;SDS011;6217;48.150;17.142;2024-03-08T15:58:00;10.02;;;8.35;;
12308;SDS011;6217;48.150;17.142;2024-03-08T16:02:06;7.35;;;6.22;;
12308;SDS011;6217;48.150;17.142;2024-03-08T16:06:13;9.70;;;7.72;;
12308;SDS011;6217;48.150;17.142;2024-03-08T16:10:18;9.02;;;6.80;;
12308;SDS011;6217;48.150;17.142;2024-03-08T16:14:24;9.32;;;7.80;;
12308;SDS011;6217;48.150;17.142;2024-03-08T16:18:30;10.02;;;7.75;;
12308;SDS011;6217;48.150;17.142;2024-03-08T16:22:43;13.98;;;8.73;;
12308;SDS011;6217;48.150;17.142;2024-03-08T16:26:52;17.08;;;9.27;;
12308;SDS011;6217;48.150;17.142;2024-03-08T16:30:58;10.82;;;8.75;;
12308;SDS011;6217;48.150;17.142;2024-03-08T16:35:04;12.88;;;10.30;;
12308;SDS011;6217;48.150;17.142;2024-03-08T16:39:15;11.93;;;8.38;;
12308;SDS011;6217;48.150;17.142;2024-03-08T16:43:21;14.45;;;9.98;;
12308;SDS011;6217;48.150;17.142;2024-03-08T16:47:27;13.82;;;9.82;;
12308;SDS011;6217;48.150;17.142;2024-03-08T16:51:33;20.67;;;13.55;;
12308;SDS011;6217;48.150;17.142;2024-03-08T16:55:39;18.52;;;13.15;;
12308;SDS011;6217;48.150;17.142;2024-03-08T16:59:45;19.45;;;12.18;;
12308;SDS011;6217;48.150;17.142;2024-03-08T17:03:51;20.90;;;13.95;;
12308;SDS011;6217;48.150;17.142;2024-03-08T17:07:58;22.30;;;14.05;;
12308;SDS011;6217;48.150;17.142;2024-03-08T17:12:06;24.63;;;15.88;;
12308;SDS011;6217;48.150;17.142;2024-03-08T17:16:15;21.52;;;14.27;;
12308;SDS011;6217;48.150;17.142;2024-03-08T17:20:22;26.00;;;14.27;;
12308;SDS011;6217;48.150;17.142;2024-03-08T17:24:29;24.55;;;15.77;;
12308;SDS011;6217;48.150;17.142;2024-03-08T17:28:36;24.20;;;14.48;;
12308;SDS011;6217;48.150;17.142;2024-03-08T17:32:46;22.08;;;14.40;;
12308;SDS011;6217;48.150;17.142;2024-03-08T17:36:59;24.30;;;13.75;;
12308;SDS011;6217;48.150;17.142;2024-03-08T17:41:05;27.23;;;16.92;;
12308;SDS011;6217;48.150;17.142;2024-03-08T17:45:12;26.15;;;16.35;;
12308;SDS011;6217;48.150;17.142;2024-03-08T17:49:18;27.10;;;15.65;;
12308;SDS011;6217;48.150;17.142;2024-03-08T17:53:24;29.98;;;17.25;;
12308;SDS011;6217;48.150;17.142;2024-03-08T17:57:31;24.65;;;17.38;;
12308;SDS011;6217;48.150;17.142;2024-03-08T18:01:37;29.40;;;17.92;;
12308;SDS011;6217;48.150;17.142;2024-03-08T18:05:44;30.45;;;16.58;;
12308;SDS011;6217;48.150;17.142;2024-03-08T18:09:50;29.90;;;17.55;;
12308;SDS011;6217;48.150;17.142;2024-03-08T18:13:56;30.42;;;18.25;;
12308;SDS011;6217;48.150;17.142;2024-03-08T18:18:02;28.92;;;16.92;;
12308;SDS011;6217;48.150;17.142;2024-03-08T18:22:09;31.38;;;18.58;;
12308;SDS011;6217;48.150;17.142;2024-03-08T18:26:16;32.45;;;18.88;;
12308;SDS011;6217;48.150;17.142;2024-03-08T18:30:23;30.27;;;18.00;;
12308;SDS011;6217;48.150;17.142;2024-03-08T18:34:32;32.17;;;18.27;;
12308;SDS011;6217;48.150;17.142;2024-03-08T18:38:38;32.70;;;20.25;;
12308;SDS011;6217;48.150;17.142;2024-03-08T18:42:44;32.70;;;20.00;;
12308;SDS011;6217;48.150;17.142;2024-03-08T18:46:50;32.42;;;19.55;;
12308;SDS011;6217;48.150;17.142;2024-03-08T18:51:01;30.65;;;22.17;;
12308;SDS011;6217;48.150;17.142;2024-03-08T18:55:07;39.95;;;21.48;;
12308;SDS011;6217;48.150;17.142;2024-03-08T18:59:37;41.63;;;23.65;;
12308;SDS011;6217;48.150;17.142;2024-03-08T19:03:44;32.80;;;19.63;;
12308;SDS011;6217;48.150;17.142;2024-03-08T19:07:53;33.25;;;20.08;;
12308;SDS011;6217;48.150;17.142;2024-03-08T19:12:00;40.95;;;25.48;;
12308;SDS011;6217;48.150;17.142;2024-03-08T19:16:13;41.22;;;23.08;;
12308;SDS011;6217;48.150;17.142;2024-03-08T19:20:23;38.20;;;24.05;;
12308;SDS011;6217;48.150;17.142;2024-03-08T19:24:31;34.97;;;20.35;;
12308;SDS011;6217;48.150;17.142;2024-03-08T19:28:40;37.13;;;22.13;;
12308;SDS011;6217;48.150;17.142;2024-03-08T19:32:46;37.20;;;20.63;;
12308;SDS011;6217;48.150;17.142;2024-03-08T19:36:52;41.80;;;22.60;;
12308;SDS011;6217;48.150;17.142;2024-03-08T19:40:58;37.90;;;22.83;;
12308;SDS011;6217;48.150;17.142;2024-03-08T19:45:04;45.13;;;24.35;;
12308;SDS011;6217;48.150;17.142;2024-03-08T19:49:15;30.83;;;18.63;;
12308;SDS011;6217;48.150;17.142;2024-03-08T19:53:22;38.53;;;21.17;;
12308;SDS011;6217;48.150;17.142;2024-03-08T19:57:28;37.00;;;23.27;;
12308;SDS011;6217;48.150;17.142;2024-03-08T20:01:36;50.88;;;27.15;;
12308;SDS011;6217;48.150;17.142;2024-03-08T20:05:42;35.17;;;21.80;;
12308;SDS011;6217;48.150;17.142;2024-03-08T20:09:49;45.58;;;25.63;;
12308;SDS011;6217;48.150;17.142;2024-03-08T20:13:55;46.15;;;26.83;;
12308;SDS011;6217;48.150;17.142;2024-03-08T20:18:04;45.83;;;26.30;;
12308;SDS011;6217;48.150;17.142;2024-03-08T20:22:11;41.95;;;25.95;;
12308;SDS011;6217;48.150;17.142;2024-03-08T20:26:17;48.63;;;26.88;;
12308;SDS011;6217;48.150;17.142;2024-03-08T20:30:27;51.78;;;29.38;;
12308;SDS011;6217;48.150;17.142;2024-03-08T20:34:34;43.20;;;24.58;;
12308;SDS011;6217;48.150;17.142;2024-03-08T20:38:42;44.67;;;29.48;;
12308;SDS011;6217;48.150;17.142;2024-03-08T20:42:48;43.85;;;25.48;;
12308;SDS011;6217;48.150;17.142;2024-03-08T20:46:58;46.08;;;28.13;;
12308;SDS011;6217;48.150;17.142;2024-03-08T20:51:04;53.88;;;26.75;;
12308;SDS011;6217;48.150;17.142;2024-03-08T20:55:12;47.88;;;26.83;;
12308;SDS011;6217;48.150;17.142;2024-03-08T20:59:19;46.38;;;27.42;;
12308;SDS011;6217;48.150;17.142;2024-03-08T21:03:25;42.45;;;27.60;;
12308;SDS011;6217;48.150;17.142;2024-03-08T21:07:32;46.42;;;26.35;;
12308;SDS011;6217;48.150;17.142;2024-03-08T21:11:41;46.55;;;26.02;;
12308;SDS011;6217;48.150;17.142;2024-03-08T21:15:48;43.55;;;30.13;;
12308;SDS011;6217;48.150;17.142;2024-03-08T21:19:55;47.50;;;28.65;;
12308;SDS011;6217;48.150;17.142;2024-03-08T21:24:01;49.63;;;29.75;;
12308;SDS011;6217;48.150;17.142;2024-03-08T21:28:07;49.80;;;30.60;;
12308;SDS011;6217;48.150;17.142;2024-03-08T21:32:13;51.40;;;31.83;;
12308;SDS011;6217;48.150;17.142;2024-03-08T21:36:20;60.13;;;31.77;;
12308;SDS011;6217;48.150;17.142;2024-03-08T21:40:27;52.90;;;30.90;;
12308;SDS011;6217;48.150;17.142;2024-03-08T21:44:39;54.85;;;30.55;;
12308;SDS011;6217;48.150;17.142;2024-03-08T21:48:45;50.72;;;31.85;;
12308;SDS011;6217;48.150;17.142;2024-03-08T21:52:51;48.03;;;30.23;;
12308;SDS011;6217;48.150;17.142;2024-03-08T21:56:57;46.03;;;27.40;;
12308;SDS011;6217;48.150;17.142;2024-03-08T22:01:04;57.47;;;34.78;;
12308;SDS011;6217;48.150;17.142;2024-03-08T22:05:11;58.05;;;37.53;;
12308;SDS011;6217;48.150;17.142;2024-03-08T22:09:28;53.55;;;31.60;;
12308;SDS011;6217;48.150;17.142;2024-03-08T22:13:34;53.75;;;31.80;;
12308;SDS011;6217;48.150;17.142;2024-03-08T22:17:40;63.25;;;40.05;;
12308;SDS011;6217;48.150;17.142;2024-03-08T22:21:47;63.97;;;39.53;;
12308;SDS011;6217;48.150;17.142;2024-03-08T22:25:54;53.67;;;30.08;;
12308;SDS011;6217;48.150;17.142;2024-03-08T22:30:00;71.20;;;37.22;;
12308;SDS011;6217;48.150;17.142;2024-03-08T22:34:06;56.33;;;31.60;;
12308;SDS011;6217;48.150;17.142;2024-03-08T22:38:12;62.75;;;36.58;;
12308;SDS011;6217;48.150;17.142;2024-03-08T22:42:18;54.47;;;34.33;;
12308;SDS011;6217;48.150;17.142;2024-03-08T22:46:24;62.33;;;36.58;;
12308;SDS011;6217;48.150;17.142;2024-03-08T22:50:30;66.38;;;38.22;;
12308;SDS011;6217;48.150;17.142;2024-03-08T22:54:36;65.25;;;36.75;;
12308;SDS011;6217;48.150;17.142;2024-03-08T22:58:42;59.92;;;35.28;;
12308;SDS011;6217;48.150;17.142;2024-03-08T23:02:49;66.72;;;34.80;;
12308;SDS011;6217;48.150;17.142;2024-03-08T23:06:56;64.00;;;35.85;;
12308;SDS011;6217;48.150;17.142;2024-03-08T23:11:02;60.05;;;34.78;;
12308;SDS011;6217;48.150;17.142;2024-03-08T23:15:09;64.30;;;36.40;;
12308;SDS011;6217;48.150;17.142;2024-03-08T23:19:19;51.70;;;33.42;;
12308;SDS011;6217;48.150;17.142;2024-03-08T23:23:25;43.10;;;29.63;;
12308;SDS011;6217;48.150;17.142;2024-03-08T23:27:31;48.38;;;29.88;;
12308;SDS011;6217;48.150;17.142;2024-03-08T23:31:38;46.55;;;30.33;;
12308;SDS011;6217;48.150;17.142;2024-03-08T23:35:44;49.72;;;28.83;;
12308;SDS011;6217;48.150;17.142;2024-03-08T23:39:50;48.13;;;29.85;;
12308;SDS011;6217;48.150;17.142;2024-03-08T23:43:56;47.35;;;26.45;;
12308;SDS011;6217;48.150;17.142;2024-03-08T23:48:02;45.78;;;29.08;;
12308;SDS011;6217;48.150;17.142;2024-03-08T23:52:08;39.40;;;26.27;;
12308;SDS011;6217;48.150;17.142;2024-03-08T23:56:15;39.83;;;23.65;;
